createdAt,value
2023-03-06T00:00:58.963Z,15.90
2023-03-06T00:03:28.316Z,19.30
2023-03-06T00:05:59.613Z,18.92
2023-03-06T00:08:30.411Z,18.00
2023-03-06T00:10:57.452Z,17.42
2023-03-06T00:13:27.156Z,15.95
2023-03-06T00:15:54.090Z,19.92
2023-03-06T00:18:21.010Z,15.32
2023-03-06T00:20:48.035Z,16.45
2023-03-06T00:23:15.187Z,16.92
2023-03-06T00:25:45.840Z,15.85
2023-03-06T00:28:15.241Z,16.67
2023-03-06T00:30:44.761Z,16.37
2023-03-06T00:33:12.530Z,14.82
2023-03-06T00:35:43.074Z,16.25
2023-03-06T00:38:16.035Z,16.80
2023-03-06T00:40:43.261Z,16.40
2023-03-06T00:43:10.499Z,15.43
2023-03-06T00:45:37.670Z,14.40
2023-03-06T00:48:07.855Z,16.95
2023-03-06T00:50:35.721Z,17.33
2023-03-06T00:53:02.645Z,17.83
2023-03-06T00:55:31.140Z,16.27
2023-03-06T00:57:58.194Z,13.10
2023-03-06T01:00:25.293Z,16.30
2023-03-06T01:02:53.872Z,14.35
2023-03-06T01:05:21.181Z,15.00
2023-03-06T01:07:48.218Z,16.20
2023-03-06T01:10:15.140Z,15.95
2023-03-06T01:12:43.211Z,15.88
2023-03-06T01:15:12.960Z,14.43
2023-03-06T01:17:40.028Z,16.25
2023-03-06T01:20:07.600Z,15.98
2023-03-06T01:22:34.535Z,18.02
2023-03-06T01:25:01.567Z,19.27
2023-03-06T01:27:28.498Z,16.90
2023-03-06T01:29:55.660Z,14.65
2023-03-06T01:32:22.652Z,16.58
2023-03-06T01:34:49.530Z,14.02
2023-03-06T01:37:16.690Z,16.30
2023-03-06T01:39:43.592Z,18.98
2023-03-06T01:42:10.530Z,16.17
2023-03-06T01:44:37.512Z,18.62
2023-03-06T01:47:04.593Z,18.83
2023-03-06T01:49:36.596Z,19.08
2023-03-06T01:52:13.994Z,19.48
2023-03-06T01:54:56.685Z,19.25
2023-03-06T01:57:49.216Z,14.32
2023-03-06T02:00:24.579Z,14.52
2023-03-06T02:03:06.704Z,15.63
2023-03-06T02:05:34.018Z,15.63
2023-03-06T02:08:06.224Z,17.60
2023-03-06T02:10:33.610Z,15.73
2023-03-06T02:13:03.098Z,15.65
2023-03-06T02:15:34.054Z,15.43
2023-03-06T02:18:02.488Z,15.27
2023-03-06T02:20:38.332Z,16.70
2023-03-06T02:23:56.121Z,17.45
2023-03-06T02:26:28.969Z,17.50
2023-03-06T02:28:57.758Z,16.25
2023-03-06T02:31:29.036Z,17.83
2023-03-06T02:34:27.588Z,17.75
2023-03-06T02:37:04.215Z,16.65
2023-03-06T02:39:34.601Z,22.90
2023-03-06T02:42:01.486Z,16.15
2023-03-06T02:44:29.198Z,15.00
2023-03-06T02:46:56.503Z,13.90
2023-03-06T02:49:26.069Z,17.25
2023-03-06T02:51:55.924Z,14.48
2023-03-06T02:54:22.776Z,17.00
2023-03-06T02:56:49.621Z,16.95
2023-03-06T02:59:16.602Z,14.82
2023-03-06T03:01:45.729Z,17.17
2023-03-06T03:04:12.760Z,19.12
2023-03-06T03:06:39.895Z,19.08
2023-03-06T03:09:07.801Z,15.98
2023-03-06T03:11:35.020Z,14.93
2023-03-06T03:14:01.987Z,18.12
2023-03-06T03:16:29.047Z,19.15
2023-03-06T03:18:55.968Z,15.95
2023-03-06T03:21:23.005Z,19.10
2023-03-06T03:23:50.172Z,20.15
2023-03-06T03:26:28.042Z,17.12
2023-03-06T03:29:14.945Z,16.12
2023-03-06T03:31:41.985Z,16.02
2023-03-06T03:34:08.972Z,16.37
2023-03-06T03:36:36.397Z,17.45
2023-03-06T03:39:06.486Z,16.10
2023-03-06T03:41:36.579Z,16.80
2023-03-06T03:44:03.516Z,18.92
2023-03-06T03:46:30.710Z,16.58
2023-03-06T03:48:57.574Z,18.27
2023-03-06T03:51:25.656Z,16.67
2023-03-06T03:54:09.866Z,15.98
2023-03-06T03:56:36.847Z,16.50
2023-03-06T03:59:05.205Z,17.55
2023-03-06T04:01:32.110Z,15.80
2023-03-06T04:03:59.016Z,24.02
2023-03-06T04:06:25.931Z,25.83
2023-03-06T04:08:52.857Z,26.17
2023-03-06T04:11:19.760Z,19.95
2023-03-06T04:13:46.730Z,17.05
2023-03-06T04:16:13.972Z,17.15
2023-03-06T04:18:41.122Z,18.95
2023-03-06T04:21:09.956Z,21.83
2023-03-06T04:23:36.851Z,20.83
2023-03-06T04:26:04.205Z,16.48
2023-03-06T04:28:31.301Z,16.90
2023-03-06T04:31:02.817Z,18.77
2023-03-06T04:33:29.884Z,17.50
2023-03-06T04:35:56.988Z,16.23
2023-03-06T04:38:23.836Z,18.37
2023-03-06T04:40:50.833Z,15.40
2023-03-06T04:43:18.188Z,15.98
2023-03-06T04:45:45.273Z,19.62
2023-03-06T04:48:20.002Z,16.33
2023-03-06T04:50:47.314Z,21.30
2023-03-06T04:53:17.447Z,16.83
2023-03-06T04:55:46.667Z,21.98
2023-03-06T04:58:14.616Z,21.70
2023-03-06T05:00:41.552Z,23.77
2023-03-06T05:03:09.692Z,19.17
2023-03-06T05:05:36.573Z,25.05
2023-03-06T05:08:03.484Z,29.60
2023-03-06T05:10:30.510Z,33.03
2023-03-06T05:12:57.456Z,29.83
2023-03-06T05:15:24.418Z,27.15
2023-03-06T05:17:52.573Z,37.28
2023-03-06T05:20:19.525Z,19.10
2023-03-06T05:22:46.509Z,18.70
2023-03-06T05:25:13.721Z,23.17
2023-03-06T05:27:41.162Z,20.52
2023-03-06T05:30:17.369Z,17.42
2023-03-06T05:32:44.556Z,17.00
2023-03-06T05:35:20.034Z,16.35
2023-03-06T05:37:47.812Z,16.58
2023-03-06T05:40:16.242Z,16.85
2023-03-06T05:42:43.472Z,19.40
2023-03-06T05:45:11.111Z,16.67
2023-03-06T05:47:38.344Z,18.10
2023-03-06T05:50:09.774Z,21.48
2023-03-06T05:52:41.448Z,19.30
2023-03-06T05:55:10.825Z,18.62
2023-03-06T05:57:37.818Z,20.42
2023-03-06T06:00:06.836Z,17.85
2023-03-06T06:02:33.878Z,21.10
2023-03-06T06:05:13.071Z,16.65
2023-03-06T06:07:41.162Z,22.33
2023-03-06T06:10:08.904Z,18.42
2023-03-06T06:12:36.175Z,36.17
2023-03-06T06:15:05.662Z,31.25
2023-03-06T06:17:33.541Z,19.60
2023-03-06T06:20:00.671Z,24.08
2023-03-06T06:22:27.698Z,20.37
2023-03-06T06:24:54.790Z,23.08
2023-03-06T06:27:21.909Z,18.92
2023-03-06T06:29:52.697Z,16.98
2023-03-06T06:32:20.114Z,23.52
2023-03-06T06:34:47.415Z,14.27
2023-03-06T06:37:15.151Z,15.98
2023-03-06T06:39:42.061Z,17.87
2023-03-06T06:42:29.327Z,22.23
2023-03-06T06:44:57.310Z,28.67
2023-03-06T06:47:26.115Z,17.08
2023-03-06T06:49:54.965Z,15.20
2023-03-06T06:52:23.368Z,18.17
2023-03-06T06:54:52.645Z,14.57
2023-03-06T06:57:19.689Z,14.85
2023-03-06T06:59:46.838Z,18.77
2023-03-06T07:02:16.641Z,17.45
2023-03-06T07:07:30.286Z,19.77
2023-03-06T07:09:59.412Z,20.25
2023-03-06T07:12:29.198Z,15.15
2023-03-06T07:14:58.629Z,14.82
2023-03-06T07:17:25.625Z,22.90
2023-03-06T07:19:53.019Z,13.40
2023-03-06T07:22:19.962Z,15.07
2023-03-06T07:24:46.886Z,19.40
2023-03-06T07:27:13.882Z,15.68
2023-03-06T07:29:43.349Z,18.45
2023-03-06T07:32:12.156Z,16.35
2023-03-06T07:34:39.228Z,18.48
2023-03-06T07:37:08.306Z,13.93
2023-03-06T07:39:35.474Z,22.25
2023-03-06T07:42:05.682Z,16.15
2023-03-06T07:44:37.942Z,14.87
2023-03-06T07:47:06.505Z,18.65
2023-03-06T07:49:39.632Z,14.68
2023-03-06T07:52:06.811Z,15.80
2023-03-06T07:54:35.403Z,14.35
2023-03-06T07:57:03.489Z,15.90
2023-03-06T07:59:30.897Z,13.68
2023-03-06T08:01:58.243Z,13.60
2023-03-06T08:04:26.464Z,14.15
2023-03-06T08:06:57.769Z,12.95
2023-03-06T08:09:27.719Z,13.05
2023-03-06T08:11:54.694Z,11.98
2023-03-06T08:14:25.652Z,16.67
2023-03-06T08:16:56.229Z,13.62
2023-03-06T08:19:23.576Z,12.75
2023-03-06T08:21:50.902Z,13.95
2023-03-06T08:24:18.956Z,14.93
2023-03-06T08:26:51.080Z,15.98
2023-03-06T08:29:18.630Z,13.02
2023-03-06T08:31:55.524Z,15.35
2023-03-06T08:34:27.288Z,14.13
2023-03-06T08:39:35.242Z,13.25
2023-03-06T08:42:02.330Z,14.10
2023-03-06T08:44:29.383Z,14.90
2023-03-06T08:46:56.437Z,14.73
2023-03-06T08:49:24.055Z,17.65
2023-03-06T08:51:54.493Z,15.73
2023-03-06T08:54:21.658Z,14.50
2023-03-06T08:56:48.917Z,15.98
2023-03-06T08:59:15.942Z,26.73
2023-03-06T09:01:44.099Z,18.33
2023-03-06T09:04:12.670Z,16.65
2023-03-06T09:06:42.564Z,17.20
2023-03-06T09:11:40.759Z,17.58
2023-03-06T09:14:07.952Z,20.37
2023-03-06T09:16:35.167Z,15.27
2023-03-06T09:19:13.342Z,25.40
2023-03-06T09:21:52.304Z,15.50
2023-03-06T09:24:19.645Z,16.07
2023-03-06T09:26:49.389Z,21.27
2023-03-06T09:29:17.739Z,18.20
2023-03-06T09:31:45.612Z,14.30
2023-03-06T09:34:12.925Z,17.12
2023-03-06T09:36:55.518Z,16.42
2023-03-06T09:39:25.414Z,15.85
2023-03-06T09:41:53.673Z,15.60
2023-03-06T09:44:32.666Z,14.63
2023-03-06T09:47:38.924Z,14.40
2023-03-06T09:50:15.903Z,16.30
2023-03-06T09:53:10.894Z,17.02
2023-03-06T09:55:42.606Z,21.60
2023-03-06T09:58:18.493Z,13.25
2023-03-06T10:01:06.830Z,13.35
2023-03-06T10:03:49.069Z,14.07
2023-03-06T10:06:52.813Z,14.82
2023-03-06T10:09:42.382Z,12.52
2023-03-06T10:12:36.434Z,12.95
2023-03-06T10:15:20.152Z,13.95
2023-03-06T10:17:51.079Z,15.25
2023-03-06T10:20:23.821Z,14.87
2023-03-06T10:23:29.124Z,13.90
2023-03-06T10:26:13.351Z,16.08
2023-03-06T10:28:59.568Z,14.00
2023-03-06T10:31:31.795Z,13.20
2023-03-06T10:34:05.874Z,13.77
2023-03-06T10:36:32.957Z,15.00
2023-03-06T10:39:00.832Z,15.10
2023-03-06T10:41:35.527Z,14.13
2023-03-06T10:44:09.606Z,12.98
2023-03-06T10:46:45.263Z,15.85
2023-03-06T10:49:15.526Z,15.38
2023-03-06T10:51:57.276Z,14.80
2023-03-06T10:54:25.424Z,15.38
2023-03-06T10:56:52.449Z,15.35
2023-03-06T10:59:27.419Z,15.57
2023-03-06T11:02:14.567Z,24.67
2023-03-06T11:04:50.411Z,16.12
2023-03-06T11:07:29.544Z,25.83
2023-03-06T11:10:19.760Z,16.17
2023-03-06T11:13:23.592Z,19.73
2023-03-06T11:16:04.257Z,13.55
2023-03-06T11:18:36.360Z,15.48
2023-03-06T11:21:07.557Z,13.85
2023-03-06T11:23:46.963Z,17.73
2023-03-06T11:26:17.002Z,17.80
2023-03-06T11:29:19.096Z,15.30
2023-03-06T11:32:07.869Z,15.98
2023-03-06T11:34:50.426Z,16.58
2023-03-06T11:37:33.188Z,18.20
2023-03-06T11:40:10.669Z,16.27
2023-03-06T11:43:00.714Z,16.67
2023-03-06T11:45:40.648Z,18.58
2023-03-06T11:48:17.804Z,14.05
2023-03-06T11:50:53.261Z,19.45
2023-03-06T11:53:30.977Z,15.52
2023-03-06T11:56:05.251Z,21.37
2023-03-06T11:59:00.503Z,14.25
2023-03-06T12:01:52.230Z,14.77
2023-03-06T12:04:53.534Z,17.55
2023-03-06T12:07:31.736Z,14.35
2023-03-06T12:10:23.950Z,15.13
2023-03-06T12:13:21.133Z,16.37
2023-03-06T12:16:18.288Z,21.33
2023-03-06T12:19:12.076Z,14.63
2023-03-06T12:21:58.023Z,17.30
2023-03-06T12:24:56.474Z,20.90
2023-03-06T12:27:37.450Z,17.15
2023-03-06T12:30:33.092Z,14.98
2023-03-06T12:33:24.423Z,15.88
2023-03-06T12:36:33.924Z,17.87
2023-03-06T12:39:24.426Z,15.73
2023-03-06T12:42:23.754Z,15.75
2023-03-06T12:45:20.322Z,15.00
2023-03-06T12:47:51.905Z,18.35
2023-03-06T12:50:32.645Z,16.77
2023-03-06T12:53:04.667Z,19.25
2023-03-06T12:56:02.755Z,20.52
2023-03-06T12:58:30.121Z,15.73
2023-03-06T13:01:07.843Z,18.48
2023-03-06T13:03:53.057Z,18.62
2023-03-06T13:06:54.573Z,18.40
2023-03-06T13:09:49.617Z,17.02
2023-03-06T13:12:41.684Z,16.83
2023-03-06T13:15:34.289Z,16.65
2023-03-06T13:18:04.020Z,17.80
2023-03-06T13:21:02.376Z,16.67
2023-03-06T13:23:37.910Z,17.05
2023-03-06T13:26:32.296Z,20.12
2023-03-06T13:28:59.555Z,15.65
2023-03-06T13:31:40.268Z,18.40
2023-03-06T13:35:01.316Z,16.77
2023-03-06T13:37:34.426Z,19.58
2023-03-06T13:40:14.434Z,19.87
2023-03-06T13:42:44.527Z,17.40
2023-03-06T13:45:33.787Z,19.77
2023-03-06T13:48:37.539Z,24.95
2023-03-06T13:50:50.374Z,18.00
2023-03-06T13:53:41.017Z,16.75
2023-03-06T13:56:46.010Z,19.33
2023-03-06T13:59:36.720Z,21.20
2023-03-06T14:02:30.863Z,34.60
2023-03-06T14:05:00.171Z,20.45
2023-03-06T14:07:44.654Z,15.07
2023-03-06T14:10:14.829Z,16.12
2023-03-06T14:12:52.971Z,17.20
2023-03-06T14:15:31.860Z,18.50
2023-03-06T14:18:14.394Z,21.70
2023-03-06T14:20:52.291Z,15.82
2023-03-06T14:23:23.968Z,16.08
2023-03-06T14:26:27.108Z,16.05
2023-03-06T14:29:00.411Z,16.98
2023-03-06T14:31:43.128Z,17.80
2023-03-06T14:34:28.874Z,18.17
2023-03-06T14:37:19.055Z,17.02
2023-03-06T14:39:49.277Z,26.45
2023-03-06T14:42:26.186Z,21.17
2023-03-06T14:45:14.684Z,16.80
2023-03-06T14:47:57.641Z,16.37
2023-03-06T14:50:33.287Z,16.30
2023-03-06T14:53:17.214Z,16.73
2023-03-06T14:56:02.267Z,20.60
2023-03-06T14:58:45.273Z,14.50
2023-03-06T15:01:13.905Z,23.25
2023-03-06T15:03:48.694Z,20.85
2023-03-06T15:06:23.116Z,20.45
2023-03-06T15:09:24.855Z,20.45
2023-03-06T15:12:30.060Z,28.62
2023-03-06T15:14:58.974Z,22.20
2023-03-06T15:17:30.396Z,27.10
2023-03-06T15:19:59.769Z,27.90
2023-03-06T15:22:41.461Z,20.98
2023-03-06T15:25:26.887Z,27.30
2023-03-06T15:28:28.853Z,26.83
2023-03-06T15:31:11.266Z,20.85
2023-03-06T15:33:38.607Z,19.48
2023-03-06T15:36:18.811Z,25.98
2023-03-06T15:38:47.200Z,24.15
2023-03-06T15:41:42.290Z,24.73
2023-03-06T15:44:13.733Z,25.92
2023-03-06T15:46:42.583Z,25.80
2023-03-06T15:49:19.457Z,24.15
2023-03-06T15:51:46.558Z,25.52
2023-03-06T15:54:13.783Z,25.02
2023-03-06T15:56:43.879Z,29.58
2023-03-06T15:59:20.146Z,26.42
2023-03-06T16:01:49.292Z,21.98
2023-03-06T16:04:17.301Z,25.67
2023-03-06T16:06:48.118Z,23.45
2023-03-06T16:09:15.263Z,21.77
2023-03-06T16:11:45.045Z,26.05
2023-03-06T16:16:46.187Z,22.15
2023-03-06T16:19:26.036Z,19.00
2023-03-06T16:21:54.697Z,16.45
2023-03-06T16:24:22.358Z,20.70
2023-03-06T16:26:51.492Z,15.75
2023-03-06T16:29:23.235Z,17.40
2023-03-06T16:31:50.699Z,16.55
2023-03-06T16:34:19.965Z,32.22
2023-03-06T16:36:48.487Z,67.70
2023-03-06T16:39:17.678Z,39.70
2023-03-06T16:41:46.093Z,45.15
2023-03-06T16:44:13.739Z,43.33
2023-03-06T16:46:46.783Z,37.53
2023-03-06T16:49:19.233Z,41.90
2023-03-06T16:51:46.308Z,42.28
2023-03-06T16:54:13.550Z,32.85
2023-03-06T16:56:40.641Z,29.05
2023-03-06T16:59:07.788Z,37.40
2023-03-06T17:01:34.838Z,24.77
2023-03-06T17:04:02.084Z,24.90
2023-03-06T17:06:30.584Z,20.58
2023-03-06T17:09:00.336Z,29.75
2023-03-06T17:11:28.490Z,34.15
2023-03-06T17:13:55.540Z,49.88
2023-03-06T17:16:23.352Z,60.70
2023-03-06T17:18:50.409Z,61.15
2023-03-06T17:21:17.828Z,58.38
2023-03-06T17:23:45.554Z,63.38
2023-03-06T17:26:19.291Z,50.53
2023-03-06T17:28:47.058Z,56.53
2023-03-06T17:31:22.470Z,77.65
2023-03-06T17:33:51.821Z,66.95
2023-03-06T17:36:20.836Z,37.45
2023-03-06T17:38:50.168Z,29.30
2023-03-06T17:41:17.477Z,26.75
2023-03-06T17:43:44.422Z,32.25
2023-03-06T17:46:13.812Z,26.52
2023-03-06T17:48:42.915Z,30.48
2023-03-06T17:51:09.984Z,29.23
2023-03-06T17:53:37.723Z,30.37
2023-03-06T17:56:06.923Z,37.88
2023-03-06T17:58:34.888Z,37.45
2023-03-06T18:01:10.130Z,40.33
2023-03-06T18:03:38.697Z,28.42
2023-03-06T18:06:09.669Z,32.75
2023-03-06T18:08:38.190Z,31.25
2023-03-06T18:11:08.432Z,24.60
2023-03-06T18:13:38.521Z,25.70
2023-03-06T18:16:07.269Z,27.55
2023-03-06T18:18:34.699Z,28.10
2023-03-06T18:21:10.420Z,27.37
2023-03-06T18:23:39.016Z,25.83
2023-03-06T18:26:24.478Z,28.50
2023-03-06T18:28:59.346Z,26.12
2023-03-06T18:31:35.644Z,32.63
2023-03-06T18:34:06.767Z,34.40
2023-03-06T18:36:34.531Z,31.33
2023-03-06T18:39:04.051Z,32.55
2023-03-06T18:41:32.002Z,26.37
2023-03-06T18:44:01.060Z,26.35
2023-03-06T18:46:33.957Z,27.67
2023-03-06T18:49:01.854Z,27.90
2023-03-06T18:51:29.123Z,29.42
2023-03-06T18:54:00.941Z,36.47
2023-03-06T18:56:28.411Z,46.13
2023-03-06T18:58:56.049Z,22.15
2023-03-06T19:01:23.397Z,22.48
2023-03-06T19:03:50.657Z,23.73
2023-03-06T19:06:18.410Z,22.27
2023-03-06T19:08:45.533Z,30.88
2023-03-06T19:11:17.584Z,36.70
2023-03-06T19:13:45.102Z,32.47
2023-03-06T19:16:21.045Z,30.62
2023-03-06T19:18:48.218Z,25.98
2023-03-06T19:21:18.664Z,32.70
2023-03-06T19:23:46.197Z,29.95
2023-03-06T19:26:14.038Z,27.48
2023-03-06T19:28:42.649Z,32.38
2023-03-06T19:31:21.757Z,26.48
2023-03-06T19:33:50.265Z,28.10
2023-03-06T19:36:18.696Z,29.00
2023-03-06T19:38:50.535Z,34.05
2023-03-06T19:41:17.720Z,30.33
2023-03-06T19:43:44.971Z,32.13
2023-03-06T19:46:15.297Z,36.83
2023-03-06T19:48:43.056Z,41.10
2023-03-06T19:51:11.769Z,41.10
2023-03-06T19:53:43.325Z,31.90
2023-03-06T19:56:19.808Z,34.47
2023-03-06T19:58:49.324Z,34.08
2023-03-06T20:01:22.321Z,33.38
2023-03-06T20:03:51.384Z,37.17
2023-03-06T20:06:20.125Z,31.80
2023-03-06T20:08:51.561Z,34.47
2023-03-06T20:11:32.903Z,41.78
2023-03-06T20:14:02.217Z,51.92
2023-03-06T20:16:34.606Z,65.28
2023-03-06T20:19:11.355Z,62.90
2023-03-06T20:21:38.679Z,46.75
2023-03-06T20:24:08.863Z,68.28
2023-03-06T20:26:59.977Z,51.95
2023-03-06T20:29:37.110Z,32.95
2023-03-06T20:32:04.565Z,38.92
2023-03-06T20:34:31.737Z,45.85
2023-03-06T20:36:59.259Z,37.20
2023-03-06T20:39:27.120Z,39.38
2023-03-06T20:41:54.318Z,52.72
2023-03-06T20:44:21.544Z,44.83
2023-03-06T20:46:49.701Z,44.78
2023-03-06T20:49:16.715Z,46.33
2023-03-06T20:51:43.742Z,49.05
2023-03-06T20:54:13.776Z,44.22
2023-03-06T20:59:11.864Z,49.13
2023-03-06T21:01:41.902Z,28.83
2023-03-06T21:04:14.035Z,28.42
2023-03-06T21:06:44.667Z,31.45
2023-03-06T21:09:11.764Z,25.42
2023-03-06T21:11:39.474Z,24.23
2023-03-06T21:14:07.252Z,25.10
2023-03-06T21:16:34.447Z,29.02
2023-03-06T21:19:01.961Z,34.40
2023-03-06T21:21:34.727Z,41.33
2023-03-06T21:24:02.797Z,29.98
2023-03-06T21:26:34.078Z,36.78
2023-03-06T21:29:03.114Z,29.85
2023-03-06T21:31:31.509Z,31.77
2023-03-06T21:33:59.286Z,31.35
2023-03-06T21:36:27.082Z,33.33
2023-03-06T21:38:54.971Z,38.00
2023-03-06T21:41:25.682Z,35.70
2023-03-06T21:44:00.336Z,37.83
2023-03-06T21:46:28.180Z,35.63
2023-03-06T21:48:56.652Z,32.13
2023-03-06T21:51:25.313Z,32.35
2023-03-06T21:53:55.349Z,33.90
2023-03-06T21:56:26.030Z,28.90
2023-03-06T21:59:13.265Z,29.75
2023-03-06T22:01:42.778Z,33.67
2023-03-06T22:04:10.339Z,31.00
2023-03-06T22:06:40.582Z,31.98
2023-03-06T22:09:08.153Z,28.85
2023-03-06T22:11:37.446Z,30.42
2023-03-06T22:14:05.400Z,28.25
2023-03-06T22:16:33.053Z,29.67
2023-03-06T22:19:00.162Z,32.25
2023-03-06T22:21:27.393Z,29.75
2023-03-06T22:23:59.873Z,29.25
2023-03-06T22:26:28.614Z,27.48
2023-03-06T22:28:56.024Z,24.70
2023-03-06T22:31:27.380Z,29.83
2023-03-06T22:33:56.887Z,33.75
2023-03-06T22:36:24.803Z,27.00
2023-03-06T22:38:57.077Z,31.23
2023-03-06T22:41:27.087Z,34.53
2023-03-06T22:43:58.762Z,24.17
2023-03-06T22:46:26.910Z,31.27
2023-03-06T22:48:57.147Z,29.92
2023-03-06T22:51:26.259Z,30.90
2023-03-06T22:53:53.506Z,34.55
2023-03-06T22:56:22.178Z,29.90
2023-03-06T22:58:49.852Z,31.10
2023-03-06T23:01:23.504Z,27.73
2023-03-06T23:03:53.913Z,30.15
2023-03-06T23:06:46.949Z,26.15
2023-03-06T23:09:19.535Z,29.37
2023-03-06T23:11:46.979Z,27.20
2023-03-06T23:14:19.230Z,28.90
2023-03-06T23:16:46.819Z,30.10
2023-03-06T23:19:15.811Z,27.62
2023-03-06T23:21:44.144Z,33.57
2023-03-06T23:24:11.654Z,27.35
2023-03-06T23:26:39.007Z,27.02
2023-03-06T23:29:05.927Z,29.05
2023-03-06T23:31:33.007Z,27.13
2023-03-06T23:34:03.703Z,21.70
2023-03-06T23:36:33.355Z,26.70
2023-03-06T23:39:00.485Z,27.65
2023-03-06T23:41:27.659Z,28.42
2023-03-06T23:43:55.471Z,29.40
2023-03-06T23:46:22.953Z,31.85
2023-03-06T23:48:51.065Z,32.17
2023-03-06T23:51:21.664Z,32.67
2023-03-06T23:54:00.006Z,32.88
2023-03-06T23:56:28.549Z,25.35
2023-03-06T23:58:56.785Z,26.77
